| time (UTC) | temp F | wind direction | speed knots | gust knots | rain 1hr in | rain 24hr in | rain mn in | humidity % | barometer mb |
| 20260505230903 | 64 | 268 | 0.0 | 3.5 | 0.00 | 0.00 | 0.00 | 75 | 1013.3 |
| 20260505230214 | 64 | 0 | 0.9 | 0.0 | 0.00 | 0.00 | 0.00 | 74 | 1013.3 |
| 20260505225403 | 64 | 335 | 1.7 | 4.3 | 0.00 | 0.00 | 0.00 | 74 | 1013.3 |
| 20260505224503 | 64 | 331 | 0.9 | 4.3 | 0.00 | 0.00 | 0.00 | 75 | 1013.4 |
| 20260505223603 | 64 | 37 | 1.7 | 2.6 | 0.00 | 0.00 | 0.00 | 75 | 1013.4 |
| 20260505222703 | 64 | 332 | 1.7 | 4.3 | 0.00 | 0.00 | 0.00 | 75 | 1013.5 |
| 20260505222013 | 63 | 273 | 1.7 | 3.5 | 0.00 | 0.00 | 0.00 | 76 | 1013.5 |
| 20260505220903 | 63 | 200 | 1.7 | 4.3 | 0.00 | 0.00 | 0.00 | 76 | 1013.6 |
| 20260505220003 | 63 | 209 | 0.9 | 4.3 | 0.00 | 0.00 | 0.00 | 76 | 1013.6 |
| 20260505215403 | 63 | 242 | 0.9 | 2.6 | 0.00 | 0.00 | 0.00 | 75 | 1013.6 |
| 20260505214713 | 62 | 239 | 0.9 | 3.5 | 0.00 | 0.00 | 0.00 | 78 | 1013.6 |
| 20260505213603 | 62 | 227 | 1.7 | 2.6 | 0.00 | 0.00 | 0.00 | 77 | 1013.7 |
| 20260505212703 | 62 | 204 | 1.7 | 4.3 | 0.00 | 0.00 | 0.00 | 77 | 1013.7 |
| 20260505211803 | 62 | 279 | 2.6 | 7.0 | 0.00 | 0.00 | 0.00 | 77 | 1013.7 |
| 20260505210903 | 62 | 316 | 1.7 | 5.2 | 0.00 | 0.00 | 0.00 | 77 | 1013.8 |
| 20260505210003 | 62 | 311 | 1.7 | 5.2 | 0.00 | 0.00 | 0.00 | 78 | 1013.8 |
| 20260505205403 | 61 | 218 | 2.6 | 5.2 | 0.00 | 0.00 | 0.00 | 79 | 1013.8 |
| 20260505204503 | 61 | 208 | 2.6 | 7.8 | 0.00 | 0.00 | 0.00 | 77 | 1013.8 |
| 20260505203603 | 61 | 197 | 1.7 | 7.0 | 0.00 | 0.00 | 0.00 | 77 | 1014.0 |
| 20260505202703 | 62 | 194 | 2.6 | 5.2 | 0.00 | 0.00 | 0.00 | 77 | 1013.9 |
| 20260505201803 | 62 | 216 | 0.9 | 5.2 | 0.00 | 0.00 | 0.00 | 79 | 1014.0 |
| 20260505200903 | 61 | 210 | 0.9 | 4.3 | 0.00 | 0.00 | 0.00 | 79 | 1014.0 |
| 20260505200003 | 61 | 205 | 1.7 | 4.3 | 0.00 | 0.00 | 0.00 | 78 | 1014.1 |
| 20260505195403 | 61 | 205 | 2.6 | 4.3 | 0.00 | 0.00 | 0.00 | 77 | 1014.0 |
| 20260505194503 | 61 | 182 | 2.6 | 7.0 | 0.00 | 0.00 | 0.00 | 77 | 1014.0 |
| 20260505193603 | 61 | 192 | 1.7 | 6.1 | 0.00 | 0.00 | 0.00 | 78 | 1014.1 |
| 20260505192703 | 62 | 210 | 1.7 | 5.2 | 0.00 | 0.00 | 0.00 | 76 | 1014.1 |
| 20260505191803 | 61 | 225 | 1.7 | 5.2 | 0.00 | 0.00 | 0.00 | 77 | 1014.1 |
| 20260505190903 | 61 | 228 | 1.7 | 7.0 | 0.00 | 0.00 | 0.00 | 78 | 1014.1 |
| 20260505190004 | 61 | 178 | 0.9 | 5.2 | 0.00 | 0.00 | 0.00 | 80 | 1014.0 |
| 20260505185403 | 60 | 175 | 1.7 | 5.2 | 0.00 | 0.00 | 0.00 | 79 | 1014.0 |
| 20260505184503 | 60 | 183 | 1.7 | 6.1 | 0.00 | 0.00 | 0.00 | 79 | 1014.2 |
| 20260505183603 | 60 | 198 | 1.7 | 4.3 | 0.00 | 0.00 | 0.00 | 80 | 1014.1 |
| 20260505182703 | 60 | 195 | 1.7 | 3.5 | 0.00 | 0.00 | 0.00 | 80 | 1014.2 |
| 20260505181803 | 60 | 182 | 1.7 | 6.1 | 0.00 | 0.00 | 0.00 | 80 | 1014.1 |
| 20260505180903 | 60 | 180 | 0.9 | 3.5 | 0.00 | 0.00 | 0.00 | 80 | 1014.0 |
| 20260505180003 | 59 | 191 | 0.9 | 3.5 | 0.00 | 0.00 | 0.00 | 81 | 1014.0 |
| 20260505175403 | 59 | 183 | 0.9 | 4.3 | 0.00 | 0.00 | 0.00 | 82 | 1014.1 |
| 20260505174503 | 58 | 158 | 0.9 | 4.3 | 0.00 | 0.00 | 0.00 | 82 | 1014.1 |
| 20260505173603 | 58 | 115 | 0.0 | 3.5 | 0.00 | 0.00 | 0.00 | 83 | 1014.1 |
| 20260505172703 | 57 | 0 | 0.9 | 0.0 | 0.00 | 0.00 | 0.00 | 85 | 1014.1 |
| 20260505172013 | 57 | 179 | 1.7 | 4.3 | 0.00 | 0.00 | 0.00 | 86 | 1014.0 |
| 20260505170903 | 56 | 179 | 0.9 | 4.3 | 0.00 | 0.00 | 0.00 | 85 | 1013.9 |
| 20260505170003 | 56 | 179 | 0.9 | 3.5 | 0.00 | 0.00 | 0.00 | 86 | 1013.8 |
| 20260505165403 | 56 | 179 | 0.9 | 3.5 | 0.00 | 0.00 | 0.00 | 86 | 1013.8 |
| 20260505164503 | 56 | 179 | 0.9 | 4.3 | 0.00 | 0.00 | 0.00 | 86 | 1013.8 |
| 20260505163603 | 55 | 177 | 1.7 | 4.3 | 0.00 | 0.00 | 0.00 | 86 | 1013.8 |
| 20260505162913 | 55 | 183 | 2.6 | 4.3 | 0.00 | 0.00 | 0.00 | 86 | 1013.8 |
| 20260505161803 | 55 | 198 | 1.7 | 5.2 | 0.00 | 0.00 | 0.00 | 86 | 1013.7 |
| 20260505160903 | 55 | 182 | 1.7 | 7.0 | 0.00 | 0.00 | 0.00 | 86 | 1013.7 |
| 20260505152913 | 55 | 176 | 3.5 | 6.1 | 0.00 | 0.00 | 0.00 | 87 | 1013.6 |
| 20260505151803 | 54 | 183 | 1.7 | 4.3 | 0.00 | 0.00 | 0.00 | 88 | 1013.5 |
| 20260505150903 | 54 | 180 | 2.6 | 4.3 | 0.00 | 0.00 | 0.00 | 88 | 1013.5 |
| 20260505124503 | 53 | 0 | 0.0 | 0.0 | 0.00 | 0.00 | 0.00 | 90 | 1012.6 |
| 20260505123603 | 53 | 0 | 0.0 | 0.0 | 0.00 | 0.00 | 0.00 | 91 | 1012.5 |
| 20260505122703 | 52 | 0 | 0.0 | 0.0 | 0.00 | 0.00 | 0.00 | 91 | 1012.5 |
| 20260505121803 | 52 | 0 | 0.0 | 0.0 | 0.00 | 0.00 | 0.00 | 91 | 1012.5 |
| 20260505121113 | 52 | 0 | 0.0 | 0.0 | 0.00 | 0.00 | 0.00 | 91 | 1012.5 |
| 20260505120004 | 52 | 0 | 0.0 | 0.0 | 0.00 | 0.00 | 0.00 | 92 | 1012.4 |
| 20260505115403 | 52 | 0 | 0.0 | 0.0 | 0.00 | 0.00 | 0.00 | 92 | 1012.4 |
| 20260505114503 | 52 | 0 | 0.0 | 0.0 | 0.00 | 0.00 | 0.00 | 91 | 1012.4 |
| 20260505113603 | 52 | 0 | 0.0 | 0.0 | 0.00 | 0.00 | 0.00 | 91 | 1012.3 |
| 20260505112703 | 52 | 0 | 0.0 | 0.0 | 0.00 | 0.00 | 0.00 | 92 | 1012.4 |
| 20260505111803 | 52 | 0 | 0.0 | 0.0 | 0.00 | 0.00 | 0.00 | 92 | 1012.4 |
| 20260505110903 | 52 | 0 | 0.0 | 0.0 | 0.00 | 0.00 | 0.00 | 91 | 1012.3 |
| 20260505110214 | 52 | 0 | 0.0 | 0.0 | 0.00 | 0.00 | 0.00 | 91 | 1012.2 |
| 20260505101803 | 52 | 0 | 0.0 | 0.0 | 0.00 | 0.00 | 0.00 | 91 | 1011.8 |
| 20260505100903 | 51 | 0 | 0.0 | 0.0 | 0.00 | 0.00 | 0.00 | 91 | 1011.8 |
| 20260505100213 | 51 | 0 | 0.0 | 0.0 | 0.00 | 0.00 | 0.00 | 91 | 1011.8 |
| 20260505095403 | 51 | 0 | 0.0 | 0.0 | 0.00 | 0.00 | 0.00 | 90 | 1011.8 |
| 20260505094503 | 51 | 0 | 0.0 | 0.0 | 0.00 | 0.00 | 0.00 | 90 | 1011.8 |
| 20260505093603 | 51 | 0 | 0.0 | 0.0 | 0.00 | 0.00 | 0.00 | 89 | 1011.7 |
| 20260505092703 | 52 | 0 | 0.0 | 0.0 | 0.00 | 0.00 | 0.00 | 89 | 1011.6 |
| 20260505091803 | 52 | 0 | 0.0 | 0.0 | 0.00 | 0.00 | 0.00 | 89 | 1011.6 |
| 20260505090903 | 52 | 0 | 0.0 | 0.0 | 0.00 | 0.00 | 0.00 | 89 | 1011.5 |
| 20260505090213 | 52 | 0 | 0.0 | 0.0 | 0.00 | 0.00 | 0.00 | 88 | 1011.5 |
| 20260505085403 | 52 | 110 | 0.9 | 3.5 | 0.00 | 0.00 | 0.00 | 88 | 1011.3 |
| 20260505084714 | 53 | 117 | 0.0 | 4.3 | 0.00 | 0.00 | 0.00 | 88 | 1011.3 |
| 20260505083603 | 53 | 186 | 1.7 | 4.3 | 0.00 | 0.00 | 0.00 | 88 | 1011.3 |
| 20260505082703 | 53 | 179 | 0.9 | 4.3 | 0.00 | 0.00 | 0.00 | 88 | 1011.3 |
| 20260505081803 | 54 | 189 | 0.9 | 2.6 | 0.00 | 0.00 | 0.00 | 87 | 1011.3 |
| 20260505081113 | 54 | 194 | 0.9 | 1.7 | 0.00 | 0.00 | 0.00 | 87 | 1011.2 |
| 20260505080003 | 54 | 168 | 0.0 | 4.3 | 0.00 | 0.00 | 0.00 | 86 | 1011.1 |
| 20260505075403 | 54 | 180 | 0.0 | 2.6 | 0.00 | 0.00 | 0.00 | 86 | 1011.1 |
| 20260505074714 | 55 | 144 | 0.9 | 2.6 | 0.00 | 0.00 | 0.00 | 86 | 1011.0 |
| 20260505073603 | 55 | 175 | 0.9 | 3.5 | 0.00 | 0.00 | 0.00 | 86 | 1010.8 |
| 20260505072703 | 55 | 173 | 0.9 | 6.1 | 0.00 | 0.00 | 0.00 | 86 | 1010.6 |
| 20260505071803 | 55 | 181 | 0.9 | 6.1 | 0.00 | 0.00 | 0.00 | 86 | 1010.6 |
| 20260505071113 | 56 | 176 | 0.0 | 6.1 | 0.00 | 0.00 | 0.00 | 85 | 1010.6 |
| 20260505070003 | 56 | 165 | 0.9 | 5.2 | 0.00 | 0.00 | 0.00 | 85 | 1010.5 |
| 20260505065614 | 56 | 172 | 0.9 | 5.2 | 0.00 | 0.00 | 0.00 | 85 | 1010.5 |
| 20260505064713 | 56 | 180 | 1.7 | 4.3 | 0.00 | 0.00 | 0.00 | 85 | 1010.3 |
| 20260505063603 | 56 | 172 | 3.5 | 5.2 | 0.00 | 0.00 | 0.00 | 84 | 1010.1 |
| 20260505062914 | 56 | 175 | 3.5 | 7.8 | 0.00 | 0.00 | 0.00 | 84 | 1010.0 |
| 20260505061803 | 57 | 178 | 2.6 | 7.0 | 0.00 | 0.00 | 0.00 | 84 | 1009.9 |
| 20260505060903 | 57 | 178 | 2.6 | 7.0 | 0.00 | 0.00 | 0.00 | 83 | 1009.8 |
| 20260505060214 | 58 | 183 | 2.6 | 6.1 | 0.00 | 0.00 | 0.00 | 83 | 1009.8 |
| 20260505055403 | 58 | 181 | 2.6 | 4.3 | 0.00 | 0.00 | 0.00 | 82 | 1009.8 |
| 20260505054503 | 58 | 177 | 3.5 | 7.0 | 0.00 | 0.00 | 0.00 | 81 | 1009.8 |
| 20260505053603 | 59 | 181 | 3.5 | 7.0 | 0.00 | 0.00 | 0.00 | 81 | 1009.6 |
| 20260505052914 | 59 | 179 | 3.5 | 7.8 | 0.00 | 0.00 | 0.00 | 80 | 1009.6 |
| 20260505051803 | 60 | 185 | 4.3 | 8.7 | 0.00 | 0.00 | 0.00 | 79 | 1009.5 |
| 20260505050903 | 60 | 186 | 3.5 | 8.7 | 0.00 | 0.00 | 0.00 | 78 | 1009.4 |
| 20260505040903 | 64 | 186 | 3.5 | 7.0 | 0.00 | 0.00 | 0.00 | 73 | 1008.6 |
| 20260505040004 | 65 | 190 | 5.2 | 10.4 | 0.00 | 0.00 | 0.00 | 72 | 1008.3 |
| 20260505035612 | 65 | 194 | 6.1 | 11.3 | 0.00 | 0.00 | 0.00 | 72 | 1008.3 |
| 20260505034503 | 66 | 200 | 5.2 | 11.3 | 0.00 | 0.00 | 0.00 | 72 | 1008.1 |
| 20260505033813 | 66 | 184 | 6.1 | 11.3 | 0.00 | 0.00 | 0.00 | 71 | 1008.0 |
| 20260505032913 | 67 | 184 | 6.1 | 10.4 | 0.00 | 0.00 | 0.00 | 70 | 1008.0 |
| 20260505031803 | 67 | 190 | 5.2 | 11.3 | 0.00 | 0.00 | 0.00 | 70 | 1007.9 |
| 20260505030903 | 68 | 181 | 5.2 | 11.3 | 0.00 | 0.00 | 0.00 | 70 | 1007.8 |
| 20260505030003 | 68 | 188 | 5.2 | 9.6 | 0.00 | 0.00 | 0.00 | 71 | 1007.7 |
| 20260505025403 | 69 | 186 | 5.2 | 12.2 | 0.00 | 0.00 | 0.00 | 71 | 1007.7 |
| 20260505024503 | 69 | 192 | 6.1 | 12.2 | 0.00 | 0.00 | 0.00 | 70 | 1007.6 |
| 20260505023603 | 70 | 188 | 6.1 | 12.2 | 0.00 | 0.00 | 0.00 | 69 | 1007.5 |
| 20260505022915 | 70 | 188 | 4.3 | 11.3 | 0.00 | 0.00 | 0.00 | 69 | 1007.5 |
| 20260505022014 | 71 | 188 | 3.5 | 8.7 | 0.00 | 0.00 | 0.00 | 70 | 1007.5 |
| 20260505020903 | 72 | 194 | 3.5 | 7.8 | 0.00 | 0.00 | 0.00 | 69 | 1007.4 |
| 20260505020004 | 72 | 190 | 4.3 | 7.8 | 0.00 | 0.00 | 0.00 | 68 | 1007.5 |
| 20260505015614 | 72 | 203 | 5.2 | 8.7 | 0.00 | 0.00 | 0.00 | 68 | 1007.5 |
| 20260505014503 | 73 | 200 | 4.3 | 10.4 | 0.00 | 0.00 | 0.00 | 65 | 1007.4 |
| 20260505013603 | 74 | 195 | 4.3 | 7.8 | 0.00 | 0.00 | 0.00 | 65 | 1007.4 |
| 20260505012914 | 73 | 196 | 5.2 | 8.7 | 0.00 | 0.00 | 0.00 | 66 | 1007.5 |
| 20260505011803 | 74 | 196 | 4.3 | 9.6 | 0.00 | 0.00 | 0.00 | 65 | 1007.6 |
| 20260505010903 | 75 | 201 | 3.5 | 8.7 | 0.00 | 0.00 | 0.00 | 65 | 1007.7 |
| 20260505010003 | 74 | 198 | 4.3 | 8.7 | 0.00 | 0.00 | 0.00 | 65 | 1007.7 |
| 20260505005403 | 74 | 203 | 4.3 | 9.6 | 0.00 | 0.00 | 0.00 | 66 | 1007.8 |
| 20260505004503 | 74 | 206 | 5.2 | 9.6 | 0.00 | 0.00 | 0.00 | 66 | 1007.8 |
| 20260505003603 | 75 | 201 | 3.5 | 8.7 | 0.00 | 0.00 | 0.00 | 63 | 1007.8 |
| 20260505002913 | 75 | 223 | 3.5 | 8.7 | 0.00 | 0.00 | 0.00 | 63 | 1007.9 |
| 20260505001803 | 75 | 214 | 2.6 | 8.7 | 0.00 | 0.00 | 0.00 | 66 | 1007.9 |
| 20260505000903 | 75 | 215 | 3.5 | 7.0 | 0.00 | 0.00 | 0.00 | 63 | 1007.9 |
| 20260505000003 | 74 | 193 | 5.2 | 11.3 | 0.00 | 0.00 | 0.00 | 68 | 1008.0 |
| 20260504235403 | 74 | 189 | 5.2 | 10.4 | 0.00 | 0.00 | 0.00 | 65 | 1008.0 |
| 20260504234503 | 74 | 207 | 5.2 | 11.3 | 0.00 | 0.00 | 0.00 | 66 | 1008.1 |
| 20260504233603 | 74 | 216 | 2.6 | 11.3 | 0.00 | 0.00 | 0.00 | 65 | 1008.2 |
| 20260504232703 | 74 | 212 | 3.5 | 10.4 | 0.00 | 0.00 | 0.00 | 68 | 1008.2 |
| 20260504231803 | 74 | 205 | 4.3 | 10.4 | 0.00 | 0.00 | 0.00 | 67 | 1008.2 |